Time;durP1;ratioP1;P1;durP2;ratioP2;P2;SDS_P1;SDS_P2;PMS_P1;PMS_P2;Temp;Humidity;BMP_temperature;BMP_pressure;BME280_temperature;BME280_humidity;BME280_pressure;Samples;Min_cycle;Max_cycle;Signal;HPM_P1;HPM_P2
2024/01/22 00:00:41;;;;;;;1.10;0.63;;;;;;;15.78;100.00;97080.97;7401102;19;20078;-55
2024/01/22 00:03:07;;;;;;;7.03;0.50;;;;;;;15.81;100.00;97113.47;7398037;19;20039;-56
2024/01/22 00:05:33;;;;;;;0.17;0.10;;;;;;;15.82;100.00;97080.56;7398672;19;20070;-55
2024/01/22 00:07:59;;;;;;;6.72;1.30;;;;;;;15.78;100.00;97097.06;7397161;19;20015;-55
2024/01/22 00:10:26;;;;;;;12.18;0.95;;;;;;;15.75;100.00;97087.75;7398894;19;20469;-55
2024/01/22 00:12:52;;;;;;;2.80;1.00;;;;;;;15.74;100.00;97085.53;7396287;19;20035;-55
2024/01/22 00:15:18;;;;;;;4.28;0.30;;;;;;;15.76;100.00;97082.88;7396971;19;20465;-56
2024/01/22 00:17:44;;;;;;;20.42;2.05;;;;;;;15.80;100.00;97091.63;7402342;19;20010;-55
2024/01/22 00:20:10;;;;;;;7.95;1.20;;;;;;;15.77;100.00;97096.31;7393903;19;20420;-55
2024/01/22 00:22:36;;;;;;;6.80;1.73;;;;;;;15.76;100.00;97097.66;7397215;19;20040;-56
2024/01/22 00:25:03;;;;;;;16.75;0.65;;;;;;;15.75;100.00;97095.41;7396826;19;20070;-55
2024/01/22 00:27:29;;;;;;;9.65;0.98;;;;;;;15.73;100.00;97109.28;7396555;19;20070;-55
2024/01/22 00:29:55;;;;;;;3.80;1.17;;;;;;;15.63;100.00;97086.75;7393231;19;20402;-56
2024/01/22 00:32:22;;;;;;;12.57;1.30;;;;;;;11.50;100.00;97110.09;7395504;19;20066;-56
2024/01/22 00:34:48;;;;;;;4.28;0.88;;;;;;;10.92;100.00;97118.22;7399659;19;20018;-56
2024/01/22 00:37:14;;;;;;;1.42;0.98;;;;;;;14.94;100.00;97108.25;7396504;19;20024;-56
2024/01/22 00:39:40;;;;;;;9.48;1.65;;;;;;;15.52;100.00;97125.75;7395848;19;20006;-56
2024/01/22 00:42:06;;;;;;;5.20;1.08;;;;;;;15.73;100.00;97131.72;7394732;19;20359;-56
2024/01/22 00:44:32;;;;;;;2.75;1.38;;;;;;;15.96;100.00;97129.41;7395688;19;20470;-56
2024/01/22 00:46:59;;;;;;;2.80;1.23;;;;;;;16.01;100.00;97120.00;7399785;19;20014;-56
2024/01/22 00:49:25;;;;;;;5.82;0.40;;;;;;;16.12;100.00;97147.56;7395822;19;20007;-56
2024/01/22 00:51:51;;;;;;;14.20;2.40;;;;;;;16.07;100.00;97145.03;7396408;19;20028;-55
2024/01/22 00:54:17;;;;;;;7.22;0.40;;;;;;;16.10;100.00;97155.84;7396250;19;20010;-56
2024/01/22 00:56:43;;;;;;;3.10;1.33;;;;;;;16.10;100.00;97161.47;7397650;19;20444;-56
2024/01/22 00:59:09;;;;;;;4.03;1.75;;;;;;;16.01;100.00;97169.78;7397266;19;20014;-56
2024/01/22 01:01:35;;;;;;;1.33;0.43;;;;;;;15.93;100.00;97203.56;7395904;19;20477;-56
2024/01/22 01:04:02;;;;;;;14.95;2.63;;;;;;;15.86;100.00;97235.25;7396470;19;20011;-56
2024/01/22 01:06:28;;;;;;;1.45;0.10;;;;;;;15.54;100.00;97218.50;7395670;19;20007;-55
2024/01/22 01:08:54;;;;;;;11.40;1.88;;;;;;;15.45;100.00;97244.38;7395404;19;20011;-56
2024/01/22 01:11:20;;;;;;;6.65;0.77;;;;;;;15.25;100.00;97220.16;7396350;19;20462;-55
2024/01/22 01:13:46;;;;;;;2.72;0.77;;;;;;;15.23;100.00;97225.59;7396233;19;20014;-55
2024/01/22 01:16:12;;;;;;;5.07;0.75;;;;;;;15.10;100.00;97244.19;7396236;19;20021;-55
2024/01/22 01:18:38;;;;;;;0.40;0.40;;;;;;;15.05;100.00;97264.78;7395446;19;20021;-55
2024/01/22 01:21:04;;;;;;;0.65;0.30;;;;;;;14.95;100.00;97261.09;7396549;19;20335;-55
2024/01/22 01:23:31;;;;;;;7.97;0.98;;;;;;;14.80;100.00;97285.63;7394919;19;20078;-56
2024/01/22 01:25:57;;;;;;;4.78;0.75;;;;;;;14.76;100.00;97302.09;7395742;19;20002;-55
2024/01/22 01:28:23;;;;;;;7.93;1.35;;;;;;;14.89;100.00;97302.59;7400182;19;20015;-55
2024/01/22 01:30:49;;;;;;;1.95;0.95;;;;;;;14.82;100.00;97303.38;7396134;19;20011;-56
2024/01/22 01:33:15;;;;;;;0.52;0.52;;;;;;;14.72;100.00;97312.94;7394036;19;20366;-55
2024/01/22 01:35:43;;;;;;;0.68;0.68;;;;;;;14.66;100.00;97324.34;7394339;19;20023;-55
2024/01/22 01:38:10;;;;;;;0.30;0.30;;;;;;;14.57;100.00;97322.16;7398225;19;20388;-56
2024/01/22 01:40:39;;;;;;;7.20;1.63;;;;;;;14.41;100.00;97326.28;7392112;19;20018;-56
2024/01/22 01:43:06;;;;;;;2.10;0.95;;;;;;;14.31;100.00;97342.88;7393478;19;20011;-55
2024/01/22 01:45:32;;;;;;;0.90;0.90;;;;;;;14.18;100.00;97354.28;7395127;19;20018;-55
2024/01/22 01:47:58;;;;;;;1.55;0.47;;;;;;;14.08;100.00;97378.53;7398403;19;20029;-56
2024/01/22 01:50:25;;;;;;;0.70;0.60;;;;;;;13.91;100.00;97375.53;7396166;19;20410;-55
2024/01/22 01:52:52;;;;;;;4.78;1.38;;;;;;;14.00;100.00;97388.22;7397723;19;20011;-55
2024/01/22 01:55:20;;;;;;;2.92;1.27;;;;;;;13.91;100.00;97411.16;7394676;19;20023;-55
2024/01/22 01:57:48;;;;;;;0.45;0.30;;;;;;;13.85;100.00;97411.34;7396577;19;20025;-55
2024/01/22 02:00:16;;;;;;;0.40;0.20;;;;;;;13.84;100.00;97404.25;7395065;19;20047;-55
2024/01/22 02:02:42;;;;;;;2.92;1.55;;;;;;;13.75;100.00;97412.44;7394163;19;20018;-55
2024/01/22 02:05:08;;;;;;;1.63;0.65;;;;;;;13.69;100.00;97410.56;7394173;19;20032;-55
2024/01/22 02:07:34;;;;;;;0.10;0.10;;;;;;;13.48;100.00;97440.72;7396290;19;20359;-56
2024/01/22 02:10:01;;;;;;;0.75;0.75;;;;;;;13.26;100.00;97438.56;7393390;19;20380;-55
2024/01/22 02:12:27;;;;;;;1.70;0.60;;;;;;;13.24;100.00;97446.75;7393617;19;20035;-55
2024/01/22 02:14:53;;;;;;;0.90;0.75;;;;;;;13.41;100.00;97455.41;7393590;19;20635;-55
2024/01/22 02:17:19;;;;;;;6.10;1.25;;;;;;;13.34;100.00;97463.78;7396563;19;20014;-56
2024/01/22 02:19:45;;;;;;;1.77;0.43;;;;;;;12.60;100.00;97465.53;7391493;19;20014;-55
2024/01/22 02:22:11;;;;;;;1.00;0.68;;;;;;;13.23;100.00;97470.41;7396947;19;20010;-55
2024/01/22 02:24:37;;;;;;;10.25;0.70;;;;;;;13.16;100.00;97487.13;7398033;19;20494;-55
2024/01/22 02:27:04;;;;;;;0.30;0.30;;;;;;;12.89;100.00;97494.94;7395703;19;20018;-55
2024/01/22 02:29:30;;;;;;;7.90;0.95;;;;;;;12.98;100.00;97497.25;7393634;19;20470;-56
2024/01/22 02:31:56;;;;;;;0.35;0.20;;;;;;;12.79;100.00;97499.53;7393576;19;20014;-55
2024/01/22 02:34:22;;;;;;;10.85;0.88;;;;;;;12.81;100.00;97505.31;7392520;19;20011;-55
2024/01/22 02:36:48;;;;;;;0.47;0.47;;;;;;;12.78;100.00;97517.59;7395051;19;20014;-55
2024/01/22 02:39:14;;;;;;;0.40;0.40;;;;;;;12.81;100.00;97530.47;7397711;19;20014;-56
2024/01/22 02:41:43;;;;;;;2.88;1.02;;;;;;;12.52;100.00;97521.28;7390452;19;20011;-55
2024/01/22 02:44:09;;;;;;;3.55;1.52;;;;;;;12.72;100.00;97533.75;7390382;19;20372;-55
2024/01/22 02:46:36;;;;;;;1.00;0.32;;;;;;;12.80;100.00;97528.94;7390748;19;20010;-55
2024/01/22 02:49:02;;;;;;;4.78;1.20;;;;;;;13.01;100.00;97546.44;7392363;19;20018;-55
2024/01/22 02:51:28;;;;;;;2.83;0.68;;;;;;;12.86;100.00;97582.66;7392488;19;20011;-55
2024/01/22 02:53:54;;;;;;;0.10;0.10;;;;;;;12.96;100.00;97575.28;7405190;19;20010;-55
2024/01/22 02:56:21;;;;;;;6.57;0.50;;;;;;;12.87;100.00;97570.16;7405501;19;20011;-55
2024/01/22 02:58:47;;;;;;;0.10;0.10;;;;;;;12.63;100.00;97581.69;7405637;19;20038;-55
2024/01/22 03:01:13;;;;;;;0.63;0.63;;;;;;;12.61;100.00;97601.03;7408555;19;20025;-56
2024/01/22 03:03:40;;;;;;;0.70;0.20;;;;;;;11.85;100.00;97600.19;7407626;19;20088;-55
2024/01/22 03:06:07;;;;;;;1.30;0.82;;;;;;;10.72;100.00;97620.75;7406809;19;20007;-55
2024/01/22 03:08:34;;;;;;;6.82;0.45;;;;;;;12.34;100.00;97621.97;7408328;19;20098;-56
2024/01/22 03:11:00;;;;;;;0.10;0.08;;;;;;;12.50;100.00;97624.38;7406931;19;20035;-56
2024/01/22 03:13:26;;;;;;;0.10;0.10;;;;;;;12.48;100.00;97626.22;7408178;19;20014;-56
2024/01/22 03:15:53;;;;;;;0.40;0.40;;;;;;;12.52;100.00;97632.19;7406699;19;20015;-55
2024/01/22 03:18:19;;;;;;;1.52;0.25;;;;;;;12.48;100.00;97662.50;7406242;19;20466;-55
2024/01/22 03:20:45;;;;;;;0.10;0.00;;;;;;;12.42;100.00;97661.88;7405137;19;20019;-55
2024/01/22 03:23:11;;;;;;;0.20;0.20;;;;;;;12.44;100.00;97668.44;7407147;19;20356;-55
2024/01/22 03:25:37;;;;;;;0.10;0.10;;;;;;;12.45;100.00;97667.13;7408030;19;20805;-55
2024/01/22 03:28:03;;;;;;;15.80;1.20;;;;;;;12.36;100.00;97678.00;7405314;19;20355;-55
2024/01/22 03:30:29;;;;;;;1.95;0.20;;;;;;;12.32;100.00;97680.38;7406374;19;20017;-55
2024/01/22 03:32:55;;;;;;;0.30;0.10;;;;;;;12.25;100.00;97686.63;7406421;19;20425;-55
2024/01/22 03:35:22;;;;;;;5.38;0.60;;;;;;;12.26;100.00;97686.06;7406253;19;20374;-55
2024/01/22 03:37:48;;;;;;;0.73;0.50;;;;;;;11.73;100.00;97688.16;7408906;19;20018;-55
2024/01/22 03:40:14;;;;;;;0.82;0.68;;;;;;;10.65;100.00;97702.13;7405073;19;20011;-55
2024/01/22 03:42:40;;;;;;;13.05;0.85;;;;;;;11.97;100.00;97706.72;7404514;19;20014;-55
2024/01/22 03:45:07;;;;;;;6.55;0.63;;;;;;;11.97;100.00;97718.63;7404274;19;20398;-55
2024/01/22 03:47:33;;;;;;;8.07;0.93;;;;;;;12.21;100.00;97726.03;7403450;19;20018;-55
2024/01/22 03:50:00;;;;;;;0.63;0.20;;;;;;;12.32;100.00;97736.97;7407751;19;20010;-55
2024/01/22 03:52:26;;;;;;;0.65;0.65;;;;;;;12.31;100.00;97740.25;7405567;19;20027;-56
2024/01/22 03:54:52;;;;;;;0.93;0.93;;;;;;;12.22;100.00;97740.69;7407831;19;20014;-55
2024/01/22 03:57:18;;;;;;;0.10;0.10;;;;;;;12.22;100.00;97737.91;7405870;19;20462;-55
2024/01/22 03:59:46;;;;;;;1.30;0.50;;;;;;;12.22;100.00;97749.06;7407023;19;20038;-55
2024/01/22 04:02:12;;;;;;;1.80;1.08;;;;;;;12.23;100.00;97767.31;7407125;19;20006;-55
2024/01/22 04:04:38;;;;;;;2.17;0.63;;;;;;;12.18;100.00;97766.91;7395266;19;20085;-55
2024/01/22 04:07:05;;;;;;;2.10;0.57;;;;;;;12.04;100.00;97768.19;7398441;19;20014;-55
2024/01/22 04:09:31;;;;;;;0.40;0.30;;;;;;;12.00;100.00;97778.91;7398004;19;20011;-55
2024/01/22 04:11:57;;;;;;;0.10;0.00;;;;;;;11.92;100.00;97788.44;7398015;19;20029;-55
2024/01/22 04:14:23;;;;;;;2.83;0.98;;;;;;;11.92;100.00;97796.81;7400358;19;20029;-55
2024/01/22 04:16:50;;;;;;;0.80;0.30;;;;;;;12.04;100.00;97812.81;7398249;19;20021;-56
2024/01/22 04:19:16;;;;;;;0.52;0.45;;;;;;;12.18;100.00;97811.56;7397200;19;20015;-55
2024/01/22 04:21:46;;;;;;;0.98;0.63;;;;;;;12.17;100.00;97832.34;7397995;19;20015;-56
2024/01/22 04:24:13;;;;;;;1.38;1.27;;;;;;;12.12;100.00;97835.25;7398420;19;20035;-55
2024/01/22 04:26:39;;;;;;;5.35;0.80;;;;;;;12.13;100.00;97847.91;7401183;19;20010;-55
2024/01/22 04:29:05;;;;;;;1.33;0.63;;;;;;;12.17;100.00;97853.94;7397639;19;20018;-55
2024/01/22 04:31:31;;;;;;;1.65;0.40;;;;;;;11.98;100.00;97859.59;7397458;19;20018;-55
2024/01/22 04:33:57;;;;;;;0.73;0.50;;;;;;;11.97;100.00;97862.91;7396875;19;20025;-56
2024/01/22 04:36:23;;;;;;;3.85;0.68;;;;;;;12.15;100.00;97879.59;7395981;19;20031;-55
2024/01/22 04:38:51;;;;;;;0.10;0.10;;;;;;;12.27;100.00;97873.81;7399162;19;20074;-55
2024/01/22 04:41:17;;;;;;;1.17;0.90;;;;;;;12.27;100.00;97884.97;7395920;19;20508;-55
2024/01/22 04:43:44;;;;;;;0.10;0.10;;;;;;;12.35;100.00;97883.78;7395188;19;20021;-55
2024/01/22 04:46:10;;;;;;;10.60;0.45;;;;;;;12.43;100.00;97875.56;7396372;19;20107;-55
2024/01/22 04:48:37;;;;;;;9.45;1.08;;;;;;;12.37;100.00;97877.66;7395566;19;20018;-55
2024/01/22 04:51:03;;;;;;;0.95;0.77;;;;;;;12.28;100.00;97897.66;7397587;19;20010;-55
2024/01/22 04:53:30;;;;;;;0.32;0.32;;;;;;;12.22;100.00;97899.75;7401607;19;20360;-55
2024/01/22 04:55:56;;;;;;;0.30;0.22;;;;;;;12.19;100.00;97890.44;7395004;19;20011;-55
2024/01/22 04:58:22;;;;;;;9.07;0.40;;;;;;;12.05;100.00;97914.78;7401275;19;20018;-55
2024/01/22 05:00:48;;;;;;;1.45;0.70;;;;;;;11.96;100.00;97917.19;7399597;19;20033;-55
2024/01/22 05:03:14;;;;;;;5.05;0.82;;;;;;;11.77;100.00;97924.84;7395715;19;20459;-55
2024/01/22 05:05:40;;;;;;;0.20;0.20;;;;;;;11.63;100.00;97935.16;7394420;19;20556;-55
2024/01/22 05:08:06;;;;;;;3.20;0.30;;;;;;;11.63;100.00;97949.09;7398436;19;20014;-55
2024/01/22 05:10:33;;;;;;;0.10;0.10;;;;;;;11.64;100.00;97950.63;7393909;19;20468;-55
2024/01/22 05:12:59;;;;;;;0.17;0.17;;;;;;;11.61;100.00;97960.03;7396555;19;20011;-55
2024/01/22 05:15:25;;;;;;;0.10;0.10;;;;;;;11.71;100.00;97964.00;7394420;19;20073;-56
2024/01/22 05:17:51;;;;;;;0.45;0.10;;;;;;;11.78;100.00;97965.41;7396090;19;20014;-55
2024/01/22 05:20:17;;;;;;;0.30;0.30;;;;;;;11.92;100.00;97966.97;7396865;19;20017;-55
2024/01/22 05:22:45;;;;;;;0.10;0.10;;;;;;;11.92;100.00;97984.47;7393102;19;20026;-56
2024/01/22 05:25:12;;;;;;;0.85;0.28;;;;;;;11.88;100.00;97978.44;7396313;19;20010;-55
2024/01/22 05:27:41;;;;;;;0.20;0.10;;;;;;;11.94;100.00;97983.94;7394098;19;20014;-55
2024/01/22 05:30:08;;;;;;;3.65;0.17;;;;;;;12.01;100.00;97995.25;7398219;19;20081;-55
2024/01/22 05:32:36;;;;;;;7.75;1.38;;;;;;;12.04;100.00;97994.16;7399667;19;20014;-55
2024/01/22 05:35:03;;;;;;;13.80;0.45;;;;;;;12.11;100.00;98003.94;7395794;19;20014;-56
2024/01/22 05:37:29;;;;;;;1.00;1.00;;;;;;;12.08;100.00;98007.81;7393669;19;20016;-56
2024/01/22 05:39:55;;;;;;;12.07;1.65;;;;;;;11.98;100.00;98007.44;7393409;19;20029;-55
2024/01/22 05:42:21;;;;;;;5.32;0.77;;;;;;;11.75;100.00;98020.22;7398569;19;20569;-55
2024/01/22 05:44:47;;;;;;;0.65;0.25;;;;;;;11.69;100.00;98032.72;7395629;19;20022;-55
2024/01/22 05:47:14;;;;;;;0.70;0.70;;;;;;;11.77;100.00;98028.81;7395406;19;20010;-55
2024/01/22 05:49:41;;;;;;;3.13;0.20;;;;;;;11.74;100.00;98023.50;7395907;19;20015;-55
2024/01/22 05:52:07;;;;;;;1.85;0.52;;;;;;;11.78;100.00;98024.72;7396316;19;20095;-55
2024/01/22 05:54:33;;;;;;;0.20;0.10;;;;;;;11.80;100.00;98033.31;7393587;19;20474;-55
2024/01/22 05:56:59;;;;;;;0.17;0.17;;;;;;;11.68;100.00;98031.97;7393833;19;20522;-55
2024/01/22 05:59:25;;;;;;;2.83;1.10;;;;;;;11.65;100.00;98037.81;7395373;19;20370;-55
2024/01/22 06:01:54;;;;;;;3.30;0.60;;;;;;;11.87;100.00;98041.06;7393163;19;20022;-55
2024/01/22 06:04:22;;;;;;;3.10;0.57;;;;;;;11.83;100.00;98053.81;7395352;19;20011;-55
2024/01/22 06:06:49;;;;;;;2.10;0.40;;;;;;;11.93;100.00;98052.91;7394360;19;20030;-55
2024/01/22 06:09:16;;;;;;;0.75;0.28;;;;;;;11.95;100.00;98061.50;7399040;19;20066;-56
2024/01/22 06:11:43;;;;;;;0.68;0.65;;;;;;;11.87;100.00;98060.59;7392530;19;20030;-55
2024/01/22 06:14:09;;;;;;;3.83;0.52;;;;;;;11.67;100.00;98069.50;7395385;19;20014;-55
2024/01/22 06:16:35;;;;;;;0.40;0.22;;;;;;;11.77;100.00;98067.09;7394174;19;20040;-55
2024/01/22 06:19:01;;;;;;;0.15;0.15;;;;;;;11.79;100.00;98076.44;7393763;19;20015;-55
2024/01/22 06:21:27;;;;;;;1.58;0.85;;;;;;;11.80;100.00;98089.09;7393759;19;20529;-56
2024/01/22 06:23:54;;;;;;;0.45;0.40;;;;;;;11.90;100.00;98087.44;7393843;19;20018;-56
2024/01/22 06:26:21;;;;;;;0.32;0.25;;;;;;;11.91;100.00;98099.38;7394276;19;20104;-55
2024/01/22 06:28:47;;;;;;;0.57;0.13;;;;;;;11.81;100.00;98096.19;7393226;19;20014;-55
2024/01/22 06:31:14;;;;;;;0.20;0.20;;;;;;;11.85;100.00;98112.59;7392000;19;20085;-56
2024/01/22 06:33:40;;;;;;;0.30;0.30;;;;;;;11.79;100.00;98109.91;7391644;19;20014;-55
2024/01/22 06:36:07;;;;;;;0.35;0.35;;;;;;;11.80;100.00;98111.41;7391195;19;20006;-55
2024/01/22 06:38:34;;;;;;;1.20;0.35;;;;;;;11.93;100.00;98119.84;7396513;19;20019;-55
2024/01/22 06:41:00;;;;;;;0.95;0.95;;;;;;;12.02;100.00;98115.94;7390469;19;20032;-55
2024/01/22 06:43:26;;;;;;;5.60;1.75;;;;;;;12.05;100.00;98126.81;7393952;19;20018;-55
2024/01/22 06:45:53;;;;;;;0.90;0.22;;;;;;;12.01;100.00;98131.94;7393680;19;20014;-62
2024/01/22 06:48:19;;;;;;;0.88;0.55;;;;;;;12.09;100.00;98132.84;7393257;19;20014;-62
2024/01/22 06:50:45;;;;;;;0.88;0.85;;;;;;;12.13;100.00;98127.72;7392446;19;20073;-62
2024/01/22 06:53:11;;;;;;;0.20;0.20;;;;;;;12.17;100.00;98139.31;7392217;19;20047;-62
2024/01/22 06:55:37;;;;;;;1.52;1.00;;;;;;;12.24;100.00;98142.78;7392724;19;20044;-55
2024/01/22 06:58:04;;;;;;;2.63;0.85;;;;;;;12.23;100.00;98136.47;7392234;19;20025;-55
2024/01/22 07:00:32;;;;;;;0.65;0.63;;;;;;;12.27;100.00;98152.91;7395105;19;20026;-55
2024/01/22 07:02:58;;;;;;;1.95;0.43;;;;;;;12.24;100.00;98156.75;7392892;19;20466;-55
2024/01/22 07:05:26;;;;;;;0.70;0.70;;;;;;;12.23;100.00;98155.25;7393544;19;20015;-55
2024/01/22 07:07:53;;;;;;;0.43;0.43;;;;;;;12.27;100.00;98161.28;7393375;19;20434;-55
2024/01/22 07:10:21;;;;;;;0.73;0.35;;;;;;;12.39;100.00;98179.41;7392334;19;20022;-55
2024/01/22 07:12:47;;;;;;;10.90;1.05;;;;;;;12.34;100.00;98183.00;7393462;19;20016;-55
2024/01/22 07:15:13;;;;;;;0.30;0.30;;;;;;;12.27;100.00;98181.56;7392839;19;20014;-55
2024/01/22 07:17:40;;;;;;;0.73;0.35;;;;;;;12.36;100.00;98189.56;7392971;19;20014;-55
2024/01/22 07:20:14;;;;;;;1.08;0.63;;;;;;;12.36;100.00;98211.91;7391496;19;20006;-55
2024/01/22 07:22:44;;;;;;;1.20;0.40;;;;;;;12.39;100.00;98213.63;7392324;19;20058;-56
2024/01/22 07:25:10;;;;;;;1.48;0.40;;;;;;;12.39;100.00;98215.69;7394385;19;20022;-55
2024/01/22 07:27:38;;;;;;;0.32;0.32;;;;;;;12.35;100.00;98231.97;7391082;19;20014;-55
2024/01/22 07:30:11;;;;;;;0.73;0.38;;;;;;;12.29;100.00;98232.03;7391123;19;20087;-55
2024/01/22 07:32:40;;;;;;;0.52;0.52;;;;;;;12.28;100.00;98230.53;7391960;19;20014;-55
2024/01/22 07:35:09;;;;;;;8.27;0.52;;;;;;;12.26;100.00;98233.09;7394262;19;20011;-55
2024/01/22 07:37:41;;;;;;;11.40;1.05;;;;;;;12.18;100.00;98244.09;7392851;19;20048;-55
2024/01/22 07:40:09;;;;;;;0.13;0.13;;;;;;;12.23;100.00;98236.19;7396700;19;20010;-55
2024/01/22 07:42:36;;;;;;;1.23;1.13;;;;;;;12.28;100.00;98243.75;7399438;19;20454;-55
2024/01/22 07:45:03;;;;;;;5.47;0.47;;;;;;;12.37;100.00;98251.72;7399213;19;20015;-55
2024/01/22 07:47:29;;;;;;;0.40;0.20;;;;;;;12.36;100.00;98255.81;7402278;19;20014;-55
2024/01/22 07:49:56;;;;;;;0.30;0.30;;;;;;;12.36;100.00;98250.22;7399378;19;20037;-55
2024/01/22 07:52:22;;;;;;;0.20;0.10;;;;;;;12.37;100.00;98254.50;7399392;19;20522;-55
2024/01/22 07:54:48;;;;;;;1.10;1.00;;;;;;;12.34;100.00;98264.72;7398931;19;20007;-55
2024/01/22 07:57:15;;;;;;;0.70;0.45;;;;;;;12.37;100.00;98274.06;7400802;19;20014;-55
2024/01/22 07:59:41;;;;;;;0.60;0.57;;;;;;;12.34;100.00;98286.28;7399135;19;20347;-55
2024/01/22 08:02:08;;;;;;;11.90;1.13;;;;;;;12.27;100.00;98298.81;7398306;19;20011;-55
2024/01/22 08:04:34;;;;;;;0.73;0.73;;;;;;;12.14;100.00;98302.25;7398349;19;20353;-55
2024/01/22 08:07:00;;;;;;;0.85;0.43;;;;;;;12.07;100.00;98299.28;7399473;19;20450;-55
2024/01/22 08:09:27;;;;;;;5.68;0.40;;;;;;;12.00;100.00;98308.97;7397810;19;20014;-55
2024/01/22 08:11:53;;;;;;;0.20;0.20;;;;;;;11.93;100.00;98311.59;7397786;19;20622;-55
2024/01/22 08:14:19;;;;;;;0.22;0.22;;;;;;;11.88;100.00;98317.97;7398086;19;20043;-55
2024/01/22 08:16:46;;;;;;;7.50;0.65;;;;;;;11.71;100.00;98320.16;7398560;19;20404;-55
2024/01/22 08:19:12;;;;;;;12.05;0.40;;;;;;;11.60;100.00;98326.56;7397181;19;20474;-55
2024/01/22 08:21:38;;;;;;;6.10;0.47;;;;;;;11.49;100.00;98323.88;7396042;19;20017;-55
2024/01/22 08:24:04;;;;;;;3.63;0.93;;;;;;;10.07;100.00;98319.22;7397050;19;20006;-55
2024/01/22 08:26:30;;;;;;;1.45;1.00;;;;;;;11.04;100.00;98328.25;7397998;19;20028;-55
2024/01/22 08:28:56;;;;;;;4.60;0.88;;;;;;;11.27;100.00;98326.81;7397726;19;20031;-55
2024/01/22 08:31:23;;;;;;;0.10;0.10;;;;;;;11.44;100.00;98331.00;7398008;19;20338;-55
2024/01/22 08:33:50;;;;;;;13.43;0.55;;;;;;;11.62;100.00;98337.19;7397729;19;20020;-55
2024/01/22 08:36:16;;;;;;;0.20;0.20;;;;;;;11.72;100.00;98339.16;7395775;19;20367;-55
2024/01/22 08:38:42;;;;;;;0.38;0.38;;;;;;;11.89;100.00;98352.97;7398585;19;20028;-55
2024/01/22 08:41:08;;;;;;;0.57;0.57;;;;;;;11.97;100.00;98360.25;7397050;19;20384;-55
2024/01/22 08:43:35;;;;;;;5.57;0.55;;;;;;;12.05;100.00;98355.59;7397025;19;20070;-55
2024/01/22 08:46:01;;;;;;;2.10;1.05;;;;;;;12.13;100.00;98361.34;7395733;19;20023;-55
2024/01/22 08:48:27;;;;;;;4.03;0.45;;;;;;;12.17;100.00;98364.63;7397810;19;20015;-55
2024/01/22 08:50:55;;;;;;;0.55;0.28;;;;;;;12.17;100.00;98365.38;7396058;19;20014;-55
2024/01/22 08:53:21;;;;;;;0.20;0.10;;;;;;;12.26;100.00;98371.91;7397039;19;20017;-55
2024/01/22 08:55:47;;;;;;;0.30;0.15;;;;;;;12.26;100.00;98369.84;7395682;19;20043;-55
2024/01/22 08:58:15;;;;;;;0.52;0.52;;;;;;;12.29;100.00;98368.06;7396048;19;20045;-55
2024/01/22 09:00:41;;;;;;;0.68;0.52;;;;;;;12.25;100.00;98373.16;7399206;19;20070;-55
2024/01/22 09:03:07;;;;;;;0.10;0.10;;;;;;;12.09;100.00;98378.41;7395449;19;20490;-55
2024/01/22 09:05:34;;;;;;;0.45;0.20;;;;;;;11.94;100.00;98377.25;7395947;19;20024;-55
2024/01/22 09:08:00;;;;;;;3.00;0.43;;;;;;;11.85;100.00;98377.59;7398477;19;20006;-55
2024/01/22 09:10:27;;;;;;;11.80;1.08;;;;;;;11.46;100.00;98389.00;7396375;19;20007;-55
2024/01/22 09:12:53;;;;;;;0.38;0.38;;;;;;;11.61;100.00;98383.84;7396301;19;20010;-55
2024/01/22 09:15:20;;;;;;;6.47;0.70;;;;;;;11.64;100.00;98387.63;7394422;19;20342;-55
2024/01/22 09:17:46;;;;;;;3.50;0.73;;;;;;;11.64;100.00;98388.38;7396756;19;20017;-55
2024/01/22 09:20:12;;;;;;;2.28;0.20;;;;;;;11.77;100.00;98401.75;7394718;19;20042;-55
2024/01/22 09:22:39;;;;;;;0.77;0.77;;;;;;;11.76;100.00;98389.09;7395106;19;20015;-55
2024/01/22 09:25:05;;;;;;;2.15;0.57;;;;;;;11.60;100.00;98398.31;7395666;19;20007;-55
2024/01/22 09:27:32;;;;;;;1.45;0.43;;;;;;;11.82;100.00;98398.94;7394783;19;20011;-55
2024/01/22 09:30:01;;;;;;;6.95;0.57;;;;;;;11.92;100.00;98397.31;7393477;19;20011;-55
2024/01/22 09:32:27;;;;;;;0.20;0.20;;;;;;;11.88;100.00;98401.66;7396005;19;20010;-55
2024/01/22 09:34:53;;;;;;;0.10;0.10;;;;;;;11.92;100.00;98386.16;7394523;19;20632;-55
2024/01/22 09:37:19;;;;;;;0.10;0.10;;;;;;;12.01;100.00;98397.00;7395567;19;20070;-55
2024/01/22 09:39:45;;;;;;;1.38;0.55;;;;;;;11.99;100.00;98407.91;7393714;19;20367;-55
2024/01/22 09:42:12;;;;;;;2.33;0.70;;;;;;;12.04;100.00;98409.88;7395742;19;20045;-55
2024/01/22 09:44:40;;;;;;;0.55;0.10;;;;;;;12.00;100.00;98409.41;7395595;19;20031;-55
2024/01/22 09:47:08;;;;;;;4.15;0.57;;;;;;;11.89;100.00;98392.75;7395120;19;20061;-55
2024/01/22 09:49:36;;;;;;;8.07;0.50;;;;;;;12.16;100.00;98411.31;7396273;19;20023;-55
2024/01/22 09:52:03;;;;;;;1.05;0.63;;;;;;;12.21;100.00;98417.38;7393857;19;20021;-55
2024/01/22 09:54:30;;;;;;;5.78;0.85;;;;;;;12.29;100.00;98418.28;7393742;19;20014;-55
2024/01/22 09:56:59;;;;;;;1.55;0.52;;;;;;;12.32;100.00;98415.22;7393612;19;20006;-54
2024/01/22 09:59:28;;;;;;;0.43;0.43;;;;;;;12.42;100.00;98415.63;7394849;19;20017;-55
2024/01/22 10:01:55;;;;;;;0.88;0.68;;;;;;;12.52;100.00;98419.56;7392829;19;20028;-55
2024/01/22 10:04:26;;;;;;;0.40;0.40;;;;;;;12.54;100.00;98433.81;7394301;19;20031;-55
2024/01/22 10:06:52;;;;;;;0.20;0.20;;;;;;;12.54;100.00;98428.94;7393810;19;20526;-55
2024/01/22 10:09:18;;;;;;;1.30;0.90;;;;;;;12.64;100.00;98432.16;7394200;19;20018;-55
2024/01/22 10:11:46;;;;;;;0.90;0.45;;;;;;;12.56;100.00;98431.97;7393355;19;20014;-54
2024/01/22 10:14:12;;;;;;;0.85;0.50;;;;;;;12.49;100.00;98437.41;7395099;19;20015;-55
2024/01/22 10:16:38;;;;;;;1.20;0.60;;;;;;;12.41;100.00;98447.63;7394508;19;20042;-54
2024/01/22 10:19:08;;;;;;;6.63;1.70;;;;;;;12.27;100.00;98445.97;7394089;19;20402;-54
2024/01/22 10:21:36;;;;;;;0.77;0.57;;;;;;;12.30;100.00;98450.53;7395048;19;20015;-54
2024/01/22 10:24:04;;;;;;;5.07;0.85;;;;;;;12.47;100.00;98454.69;7394062;19;20340;-55
2024/01/22 10:26:30;;;;;;;1.45;0.35;;;;;;;12.46;100.00;98460.75;7393761;19;20017;-54
2024/01/22 10:29:18;;;;;;;8.63;0.70;;;;;;;12.51;100.00;98449.56;7392183;19;20011;-55
2024/01/22 10:32:04;;;;;;;5.22;0.85;;;;;;;12.60;100.00;98465.97;7391856;19;20014;-55
2024/01/22 10:34:50;;;;;;;0.32;0.32;;;;;;;12.65;100.00;98467.16;7392780;19;20435;-55
2024/01/22 10:37:17;;;;;;;0.22;0.22;;;;;;;12.67;100.00;98484.16;7396162;19;20113;-55
2024/01/22 10:39:45;;;;;;;0.93;0.55;;;;;;;12.77;100.00;98490.94;7392318;19;20010;-54
2024/01/22 10:42:15;;;;;;;1.15;0.73;;;;;;;12.84;100.00;98496.69;7393734;19;20038;-55
2024/01/22 10:44:47;;;;;;;0.70;0.35;;;;;;;12.97;100.00;98504.44;7392473;19;20027;-55
2024/01/22 10:47:16;;;;;;;1.75;0.95;;;;;;;13.21;100.00;98507.22;7392944;19;20070;-55
2024/01/22 10:49:44;;;;;;;0.80;0.30;;;;;;;13.38;100.00;98513.38;7395878;19;20018;-55
2024/01/22 10:52:11;;;;;;;6.60;0.38;;;;;;;13.46;100.00;98511.50;7392865;19;20498;-55
2024/01/22 10:54:39;;;;;;;0.30;0.30;;;;;;;13.50;100.00;98523.16;7393562;19;20014;-55
2024/01/22 10:57:05;;;;;;;1.08;0.55;;;;;;;13.61;100.00;98527.84;7391963;19;20481;-54
2024/01/22 10:59:36;;;;;;;3.70;0.80;;;;;;;13.55;100.00;98538.34;7394965;19;20033;-54
2024/01/22 11:02:06;;;;;;;7.65;0.75;;;;;;;13.47;100.00;98551.44;7397186;19;20027;-55
2024/01/22 11:04:37;;;;;;;0.45;0.38;;;;;;;13.45;100.00;98563.13;7393135;19;20014;-55
2024/01/22 11:07:06;;;;;;;6.85;0.57;;;;;;;13.39;100.00;98556.09;7392576;19;20021;-55
2024/01/22 11:09:33;;;;;;;1.80;0.45;;;;;;;13.16;100.00;98583.53;7392452;19;20375;-55
2024/01/22 11:12:05;;;;;;;0.35;0.35;;;;;;;12.91;100.00;98607.13;7395951;19;20014;-55
2024/01/22 11:14:33;;;;;;;0.40;0.40;;;;;;;12.73;100.00;98602.22;7395662;19;20018;-55
2024/01/22 11:16:59;;;;;;;10.70;0.70;;;;;;;12.46;100.00;98600.38;7396838;19;20017;-55
2024/01/22 11:19:26;;;;;;;1.02;0.30;;;;;;;12.14;100.00;98588.94;7395991;19;20018;-55
2024/01/22 11:21:53;;;;;;;5.18;1.42;;;;;;;11.87;100.00;98606.56;7398741;19;20365;-56